Time;durP1;ratioP1;P1;durP2;ratioP2;P2;SDS_P1;SDS_P2;PMS_P1;PMS_P2;Temp;Humidity;BMP_temperature;BMP_pressure;BME280_temperature;BME280_humidity;BME280_pressure;Samples;Min_cycle;Max_cycle;Signal;HPM_P1;HPM_P2
2021/03/11 00:00:25;;;;;;;29.80;17.58;;;7.10;97.80;;;;;;5032268;28;20025;-86
2021/03/11 00:02:51;;;;;;;29.33;16.85;;;7.10;97.70;;;;;;5014961;28;20061;-86
2021/03/11 00:05:18;;;;;;;33.70;16.73;;;7.10;97.50;;;;;;5014376;28;20104;-88
2021/03/11 00:07:44;;;;;;;31.65;17.75;;;7.10;97.40;;;;;;5015128;28;20029;-86
2021/03/11 00:10:11;;;;;;;30.15;16.40;;;7.10;97.20;;;;;;5032238;28;20036;-86
2021/03/11 00:12:42;;;;;;;26.27;16.45;;;7.10;97.50;;;;;;5014360;28;20095;-87
2021/03/11 00:15:11;;;;;;;25.85;15.88;;;7.10;97.00;;;;;;5030998;28;20087;-86
2021/03/11 00:17:37;;;;;;;29.02;17.42;;;7.10;97.00;;;;;;5010991;28;20052;-87
2021/03/11 00:20:16;;;;;;;25.85;15.93;;;7.20;96.90;;;;;;4995035;28;20471;-85
2021/03/11 00:22:42;;;;;;;29.23;17.20;;;7.20;97.00;;;;;;5012455;28;20062;-86
2021/03/11 00:25:09;;;;;;;28.45;16.77;;;7.20;97.00;;;;;;5012448;28;20064;-87
2021/03/11 00:27:35;;;;;;;32.03;16.85;;;7.20;97.00;;;;;;5010793;28;20030;-85
2021/03/11 00:30:02;;;;;;;30.42;16.08;;;7.20;97.00;;;;;;5011188;28;20489;-85
2021/03/11 00:32:28;;;;;;;32.60;17.27;;;7.20;96.90;;;;;;5011957;28;20025;-86
2021/03/11 00:34:53;;;;;;;29.73;16.67;;;7.20;97.00;;;;;;5010703;28;20056;-85
2021/03/11 00:37:19;;;;;;;31.48;16.73;;;7.30;96.90;;;;;;5010780;28;20037;-86
2021/03/11 00:39:44;;;;;;;28.95;16.40;;;7.20;96.80;;;;;;5012104;28;20038;-85
2021/03/11 00:42:10;;;;;;;28.13;16.83;;;7.20;96.70;;;;;;5011101;28;20034;-85
2021/03/11 00:44:36;;;;;;;25.55;16.65;;;7.20;96.80;;;;;;4977797;28;20045;-86
2021/03/11 00:47:04;;;;;;;24.75;15.93;;;7.20;96.60;;;;;;5011236;28;20076;-86
2021/03/11 00:49:30;;;;;;;25.77;15.88;;;7.30;96.70;;;;;;5011518;28;20041;-85
2021/03/11 00:51:56;;;;;;;29.23;16.25;;;7.30;96.70;;;;;;5011172;28;20037;-84
2021/03/11 00:54:21;;;;;;;23.60;14.88;;;7.30;96.60;;;;;;5011309;28;20572;-86
2021/03/11 00:56:47;;;;;;;28.67;16.33;;;7.30;96.50;;;;;;5011850;28;20033;-85
2021/03/11 00:59:12;;;;;;;24.42;16.42;;;7.30;96.60;;;;;;5010252;28;20455;-87
2021/03/11 01:01:38;;;;;;;26.88;16.13;;;7.30;96.50;;;;;;5011464;28;20117;-87
2021/03/11 01:04:05;;;;;;;30.02;15.65;;;7.30;96.60;;;;;;5011985;28;20121;-86
2021/03/11 01:06:31;;;;;;;24.38;15.82;;;7.30;96.60;;;;;;5010571;28;20088;-86
2021/03/11 01:08:57;;;;;;;23.27;14.85;;;7.40;96.60;;;;;;5011741;28;20026;-86
2021/03/11 01:11:23;;;;;;;27.73;16.55;;;7.40;96.60;;;;;;5010517;28;20061;-86
2021/03/11 01:13:48;;;;;;;23.15;15.00;;;7.50;96.60;;;;;;5011599;28;20030;-85
2021/03/11 01:16:14;;;;;;;23.95;14.20;;;7.50;96.70;;;;;;4994107;28;20071;-85
2021/03/11 01:18:40;;;;;;;23.95;14.90;;;7.50;96.60;;;;;;5010697;28;20530;-85
2021/03/11 01:21:05;;;;;;;22.55;14.65;;;7.50;96.60;;;;;;5012120;28;20030;-85
2021/03/11 01:23:31;;;;;;;23.80;14.93;;;7.50;96.60;;;;;;5010475;28;20030;-85
2021/03/11 01:25:57;;;;;;;23.27;15.07;;;7.60;96.60;;;;;;5012159;28;20029;-87
2021/03/11 01:28:22;;;;;;;26.75;15.23;;;7.60;96.70;;;;;;5021877;28;20032;-87
2021/03/11 01:30:48;;;;;;;23.25;16.05;;;7.60;96.70;;;;;;5010509;28;20075;-86
2021/03/11 01:33:14;;;;;;;23.55;15.55;;;7.60;96.90;;;;;;5030045;28;20036;-86
2021/03/11 01:35:39;;;;;;;23.92;14.70;;;7.60;97.00;;;;;;5015923;28;20030;-85
2021/03/11 01:38:06;;;;;;;23.55;15.00;;;7.60;97.20;;;;;;5031353;28;20171;-85
2021/03/11 01:40:33;;;;;;;24.55;15.45;;;7.60;97.30;;;;;;5015504;28;20363;-87
2021/03/11 01:42:59;;;;;;;26.60;15.10;;;7.70;97.30;;;;;;5029892;28;20041;-86
2021/03/11 01:45:25;;;;;;;26.13;14.82;;;7.70;97.40;;;;;;5029678;28;20040;-86
2021/03/11 01:47:51;;;;;;;24.75;15.73;;;7.70;97.30;;;;;;5013266;28;20026;-86
2021/03/11 01:50:17;;;;;;;24.52;15.55;;;7.70;97.40;;;;;;5013857;28;20061;-85
2021/03/11 01:52:43;;;;;;;25.52;14.57;;;7.70;97.40;;;;;;5013312;28;20470;-86
2021/03/11 01:55:10;;;;;;;22.60;15.07;;;7.70;97.40;;;;;;5029853;28;20034;-86
2021/03/11 01:57:36;;;;;;;22.27;14.68;;;7.70;97.30;;;;;;5030596;28;20370;-87
2021/03/11 02:00:05;;;;;;;24.30;15.13;;;7.70;97.30;;;;;;5029287;28;20457;-84
2021/03/11 02:02:31;;;;;;;22.30;13.68;;;7.70;97.40;;;;;;5030602;28;20025;-85
2021/03/11 02:04:56;;;;;;;23.00;14.10;;;7.70;97.40;;;;;;5032484;28;20026;-85
2021/03/11 02:07:22;;;;;;;20.88;13.43;;;7.70;97.30;;;;;;5033187;28;20036;-85
2021/03/11 02:09:48;;;;;;;22.15;14.65;;;7.80;97.30;;;;;;5034187;28;20040;-85
2021/03/11 02:12:36;;;;;;;21.45;13.85;;;7.80;97.30;;;;;;5034547;28;20064;-85
2021/03/11 02:15:13;;;;;;;21.00;13.90;;;7.80;97.40;;;;;;5029264;28;20033;-86
2021/03/11 02:17:50;;;;;;;19.38;13.43;;;7.80;97.40;;;;;;5043090;28;20060;-84
2021/03/11 02:20:40;;;;;;;20.67;13.32;;;7.80;97.40;;;;;;5036373;28;20017;-86
2021/03/11 02:23:27;;;;;;;19.65;13.05;;;7.80;97.40;;;;;;5054145;28;20052;-85
2021/03/11 02:26:06;;;;;;;19.58;13.68;;;7.80;97.50;;;;;;5053147;28;20064;-85
2021/03/11 02:28:54;;;;;;;20.52;13.18;;;7.80;97.50;;;;;;5040153;28;20036;-86
2021/03/11 02:31:21;;;;;;;20.90;12.30;;;7.90;97.50;;;;;;5050053;28;20040;-89
2021/03/11 02:33:50;;;;;;;21.98;12.63;;;7.80;97.60;;;;;;5049279;28;20047;-85
2021/03/11 02:36:17;;;;;;;19.63;12.93;;;7.80;97.90;;;;;;5045265;28;20025;-85
2021/03/11 02:38:44;;;;;;;18.63;12.65;;;7.80;98.00;;;;;;5036230;28;20079;-85
2021/03/11 02:41:12;;;;;;;20.13;12.50;;;7.80;98.10;;;;;;5045148;28;20064;-86
2021/03/11 02:43:38;;;;;;;18.23;12.50;;;7.80;98.30;;;;;;5033784;28;20041;-85
2021/03/11 02:46:05;;;;;;;18.60;12.40;;;7.80;98.30;;;;;;5036443;28;20040;-84
2021/03/11 02:48:33;;;;;;;17.70;11.80;;;7.80;98.40;;;;;;5035751;28;20036;-86
2021/03/11 02:50:59;;;;;;;17.48;11.95;;;7.90;98.40;;;;;;5054375;28;20064;-85
2021/03/11 02:53:26;;;;;;;19.13;11.57;;;7.90;98.40;;;;;;5036534;28;20127;-85
2021/03/11 02:55:52;;;;;;;18.40;12.20;;;7.90;98.40;;;;;;5054306;28;20020;-86
2021/03/11 02:58:19;;;;;;;17.83;11.45;;;7.90;98.40;;;;;;5053227;28;20046;-86
2021/03/11 03:00:45;;;;;;;17.58;11.40;;;7.90;98.40;;;;;;5018753;28;20029;-86
2021/03/11 03:03:13;;;;;;;17.65;11.30;;;7.90;98.50;;;;;;5053902;28;20083;-86
2021/03/11 03:05:40;;;;;;;15.95;11.77;;;7.90;98.50;;;;;;5046606;28;20130;-87
2021/03/11 03:08:08;;;;;;;16.45;10.93;;;8.00;98.50;;;;;;5032911;28;20350;-86
2021/03/11 03:10:35;;;;;;;17.48;11.73;;;7.90;98.50;;;;;;5031612;28;20029;-87
2021/03/11 03:13:13;;;;;;;20.73;11.50;;;8.00;98.40;;;;;;4998514;28;20033;-85
2021/03/11 03:15:39;;;;;;;14.57;10.13;;;8.00;98.30;;;;;;5032621;28;20155;-85
2021/03/11 03:18:05;;;;;;;16.38;10.13;;;8.00;98.30;;;;;;5015908;28;20048;-86
2021/03/11 03:20:31;;;;;;;14.70;10.25;;;8.10;98.30;;;;;;5032095;28;20030;-86
2021/03/11 03:22:59;;;;;;;14.57;10.50;;;8.10;98.40;;;;;;4999234;28;20079;-86
2021/03/11 03:25:25;;;;;;;14.02;9.88;;;8.10;98.20;;;;;;5033514;28;20039;-87
2021/03/11 03:27:51;;;;;;;16.33;10.52;;;8.10;98.20;;;;;;5032992;28;20112;-87
2021/03/11 03:30:18;;;;;;;13.75;10.10;;;8.20;98.20;;;;;;5016095;28;20386;-86
2021/03/11 03:32:45;;;;;;;13.40;9.63;;;8.20;98.10;;;;;;5015089;28;20104;-87
2021/03/11 03:35:13;;;;;;;15.43;11.05;;;8.20;98.30;;;;;;5015526;28;20033;-86
2021/03/11 03:37:39;;;;;;;38.75;12.60;;;8.20;98.40;;;;;;5015501;28;20018;-86
2021/03/11 03:40:07;;;;;;;14.48;11.35;;;8.30;98.60;;;;;;5015195;28;20087;-86
2021/03/11 03:42:39;;;;;;;19.10;12.00;;;8.30;98.80;;;;;;5015002;28;20129;-87
2021/03/11 03:45:07;;;;;;;17.83;12.15;;;8.20;99.00;;;;;;5032969;28;20049;-85
2021/03/11 03:47:34;;;;;;;18.13;12.35;;;8.30;99.30;;;;;;5032752;28;20025;-86
2021/03/11 03:50:00;;;;;;;17.63;12.05;;;8.30;99.10;;;;;;5033529;28;20423;-86
2021/03/11 03:52:27;;;;;;;17.08;12.15;;;8.30;99.20;;;;;;5015326;28;20037;-85
2021/03/11 03:54:55;;;;;;;17.27;12.20;;;8.30;99.30;;;;;;5032645;28;20571;-87
2021/03/11 03:57:23;;;;;;;18.55;11.98;;;8.30;99.30;;;;;;4999039;28;20029;-85
2021/03/11 03:59:51;;;;;;;20.60;13.98;;;8.30;99.30;;;;;;5032184;28;20023;-85
2021/03/11 04:02:19;;;;;;;19.08;13.55;;;8.30;99.40;;;;;;5032702;28;20021;-86
2021/03/11 04:04:50;;;;;;;17.75;13.18;;;8.40;99.40;;;;;;5014799;28;20040;-88
2021/03/11 04:07:24;;;;;;;18.73;13.10;;;8.40;99.60;;;;;;5033152;28;20029;-86
2021/03/11 04:09:51;;;;;;;18.05;12.63;;;8.40;99.60;;;;;;5032503;28;20428;-86
2021/03/11 04:12:19;;;;;;;19.63;13.13;;;8.40;99.70;;;;;;5033242;28;20108;-85
2021/03/11 04:14:46;;;;;;;21.60;13.57;;;8.40;99.90;;;;;;5032259;28;20025;-87
2021/03/11 04:17:13;;;;;;;19.33;13.02;;;8.40;99.90;;;;;;5032954;28;20052;-88
2021/03/11 04:19:39;;;;;;;20.42;13.40;;;8.30;99.90;;;;;;5015313;28;20045;-87
2021/03/11 04:22:06;;;;;;;19.48;13.52;;;8.40;99.90;;;;;;4998847;28;20030;-88
2021/03/11 04:24:33;;;;;;;19.25;13.20;;;8.30;99.90;;;;;;5032712;28;20038;-87
2021/03/11 04:27:00;;;;;;;21.13;14.15;;;8.40;99.90;;;;;;5014358;28;20025;-88
2021/03/11 04:29:27;;;;;;;23.55;14.38;;;8.40;99.90;;;;;;5031568;28;20075;-86
2021/03/11 04:31:53;;;;;;;23.35;14.35;;;8.40;99.90;;;;;;4999387;28;20032;-86
2021/03/11 04:34:20;;;;;;;23.02;13.82;;;8.40;99.90;;;;;;5018402;28;20083;-84
2021/03/11 04:36:47;;;;;;;19.95;12.85;;;8.40;99.90;;;;;;5030876;28;20028;-85
2021/03/11 04:39:13;;;;;;;19.98;13.68;;;8.50;99.90;;;;;;5032044;28;20033;-85
2021/03/11 04:41:38;;;;;;;21.98;13.00;;;8.40;99.90;;;;;;5030326;28;20034;-86
2021/03/11 04:44:05;;;;;;;20.73;13.63;;;8.50;99.90;;;;;;5031475;28;20033;-85
2021/03/11 04:46:32;;;;;;;23.13;14.82;;;8.50;99.90;;;;;;5013943;28;20604;-85
2021/03/11 04:49:01;;;;;;;22.38;14.75;;;8.60;99.90;;;;;;4997208;28;20033;-85
2021/03/11 04:51:27;;;;;;;21.17;13.68;;;8.60;99.90;;;;;;5031800;28;20124;-85
2021/03/11 04:53:54;;;;;;;20.33;14.10;;;8.60;99.90;;;;;;4998166;28;20069;-85
2021/03/11 04:56:22;;;;;;;20.80;14.13;;;8.60;99.90;;;;;;5014257;28;20413;-85
2021/03/11 04:58:49;;;;;;;20.05;13.45;;;8.70;99.90;;;;;;4998025;28;20496;-85
2021/03/11 05:01:21;;;;;;;22.80;13.82;;;8.70;99.90;;;;;;5031401;28;20017;-87
2021/03/11 05:03:47;;;;;;;21.60;14.35;;;8.70;99.90;;;;;;5031346;28;20029;-85
2021/03/11 05:06:16;;;;;;;20.92;13.88;;;8.80;99.90;;;;;;4997395;28;20462;-84
2021/03/11 05:08:43;;;;;;;23.08;14.60;;;8.90;99.90;;;;;;5031015;28;20407;-84
2021/03/11 05:11:11;;;;;;;18.63;13.05;;;8.90;99.90;;;;;;5031770;28;20366;-85
2021/03/11 05:13:37;;;;;;;21.60;13.88;;;8.90;99.90;;;;;;5031323;28;20014;-85
2021/03/11 05:16:03;;;;;;;22.20;14.40;;;8.90;99.90;;;;;;5013494;28;20038;-84
2021/03/11 05:18:28;;;;;;;21.40;13.98;;;8.90;99.90;;;;;;4997597;28;20060;-85
2021/03/11 05:20:54;;;;;;;19.75;13.93;;;9.00;99.90;;;;;;5031303;28;20026;-85
2021/03/11 05:23:20;;;;;;;19.90;13.55;;;9.00;99.80;;;;;;5031693;28;20044;-85
2021/03/11 05:25:46;;;;;;;20.27;13.98;;;9.00;99.80;;;;;;4997425;28;20493;-89
2021/03/11 05:28:12;;;;;;;21.48;13.90;;;9.00;99.80;;;;;;5031714;28;20045;-87
2021/03/11 05:30:38;;;;;;;20.60;12.38;;;9.00;99.70;;;;;;5014872;28;20532;-86
2021/03/11 05:33:04;;;;;;;18.30;13.45;;;9.10;99.70;;;;;;5030305;28;20040;-87
2021/03/11 05:35:30;;;;;;;19.48;12.80;;;9.10;99.60;;;;;;5031192;28;20037;-90
2021/03/11 05:37:56;;;;;;;18.23;12.80;;;9.10;99.50;;;;;;4997337;28;20554;-86
2021/03/11 05:40:23;;;;;;;19.23;12.57;;;9.20;99.50;;;;;;5034870;28;20032;-86
2021/03/11 05:42:51;;;;;;;22.23;12.82;;;9.20;99.40;;;;;;5001364;28;20034;-86
2021/03/11 05:45:19;;;;;;;19.35;12.98;;;9.20;99.50;;;;;;5035553;28;20064;-87
2021/03/11 05:47:46;;;;;;;20.55;12.35;;;9.20;99.50;;;;;;5034027;28;20029;-87
2021/03/11 05:50:13;;;;;;;19.45;12.45;;;9.20;99.60;;;;;;5001648;28;20371;-87
2021/03/11 05:52:38;;;;;;;24.13;12.07;;;9.20;99.70;;;;;;5034220;28;20398;-86
2021/03/11 05:55:06;;;;;;;20.25;12.45;;;9.20;99.90;;;;;;5035728;28;20026;-85
2021/03/11 05:57:32;;;;;;;22.08;13.18;;;9.30;99.90;;;;;;5017472;28;20029;-86
2021/03/11 05:59:57;;;;;;;23.15;11.68;;;9.30;99.90;;;;;;5020380;28;20018;-86
2021/03/11 06:02:24;;;;;;;20.00;11.30;;;9.30;99.90;;;;;;5024307;28;20385;-86
2021/03/11 06:04:54;;;;;;;19.73;11.18;;;9.30;99.90;;;;;;5015466;28;20039;-85
2021/03/11 06:07:23;;;;;;;16.58;11.02;;;9.30;99.90;;;;;;5015924;28;20024;-89
2021/03/11 06:09:59;;;;;;;20.10;12.50;;;9.30;99.80;;;;;;5032749;28;20057;-86
2021/03/11 06:12:26;;;;;;;17.90;10.95;;;9.40;99.80;;;;;;5033471;28;20113;-87
2021/03/11 06:14:57;;;;;;;15.10;10.93;;;9.30;99.60;;;;;;5029290;28;20037;-88
2021/03/11 06:17:28;;;;;;;14.65;10.10;;;9.40;99.60;;;;;;5015433;28;20037;-85
2021/03/11 06:19:54;;;;;;;19.40;10.77;;;9.40;99.50;;;;;;5020045;28;20029;-86
2021/03/11 06:22:21;;;;;;;17.02;10.32;;;9.40;99.40;;;;;;5016143;28;20045;-87
2021/03/11 06:24:46;;;;;;;16.58;10.25;;;9.50;99.40;;;;;;5000224;28;20025;-85
2021/03/11 06:27:12;;;;;;;16.90;9.88;;;9.50;99.30;;;;;;5034672;28;20026;-85
2021/03/11 06:29:41;;;;;;;17.13;9.75;;;9.50;99.20;;;;;;5034658;28;20033;-89
2021/03/11 06:32:08;;;;;;;14.82;8.93;;;9.60;99.20;;;;;;5034251;28;20450;-85
2021/03/11 06:34:44;;;;;;;14.38;9.55;;;9.60;99.00;;;;;;5032968;28;20468;-85
2021/03/11 06:37:14;;;;;;;13.00;8.63;;;9.70;98.90;;;;;;5033657;28;20163;-85
2021/03/11 06:39:41;;;;;;;14.57;8.38;;;9.70;98.80;;;;;;5033919;28;20490;-87
2021/03/11 06:42:11;;;;;;;17.38;8.60;;;9.80;98.70;;;;;;5000139;28;20504;-86
2021/03/11 06:44:44;;;;;;;13.18;8.23;;;9.80;98.70;;;;;;5033516;28;20631;-85
2021/03/11 06:47:14;;;;;;;15.05;8.45;;;9.90;98.50;;;;;;5017003;28;20045;-86
2021/03/11 06:49:58;;;;;;;14.45;8.98;;;9.90;98.40;;;;;;5020674;28;20088;-86
2021/03/11 06:52:24;;;;;;;14.48;8.88;;;9.90;98.30;;;;;;5016355;28;20036;-87
2021/03/11 06:54:54;;;;;;;14.43;9.10;;;10.00;98.40;;;;;;5033629;28;20052;-86
2021/03/11 06:57:25;;;;;;;13.93;8.55;;;10.00;98.50;;;;;;5034023;28;20038;-86
2021/03/11 06:59:52;;;;;;;16.30;8.82;;;10.00;98.50;;;;;;5033036;28;20025;-86
2021/03/11 07:02:22;;;;;;;12.80;8.45;;;10.00;98.40;;;;;;5033627;28;20038;-86
2021/03/11 07:04:48;;;;;;;9.63;6.88;;;10.00;98.30;;;;;;5032570;28;20025;-87
2021/03/11 07:07:17;;;;;;;12.00;7.70;;;10.00;98.20;;;;;;5031884;28;20034;-87
2021/03/11 07:09:43;;;;;;;11.88;6.70;;;10.00;98.00;;;;;;5015394;28;20049;-85
2021/03/11 07:12:09;;;;;;;13.35;6.60;;;10.10;97.70;;;;;;5015690;28;20103;-85
2021/03/11 07:14:35;;;;;;;10.55;6.25;;;10.20;97.60;;;;;;5016072;28;20030;-86
2021/03/11 07:17:20;;;;;;;9.70;5.07;;;10.10;97.00;;;;;;5011848;28;20049;-86
2021/03/11 07:20:10;;;;;;;9.25;4.57;;;10.20;96.50;;;;;;4996181;28;20037;-86
2021/03/11 07:22:36;;;;;;;9.20;4.50;;;10.30;96.50;;;;;;5014188;28;20026;-88
2021/03/11 07:25:04;;;;;;;13.25;4.78;;;10.40;95.70;;;;;;5013224;28;20046;-86
2021/03/11 07:27:42;;;;;;;8.93;4.53;;;10.40;95.50;;;;;;5013208;28;20034;-87
2021/03/11 07:30:08;;;;;;;10.63;4.30;;;10.50;95.30;;;;;;5011834;28;20113;-85
2021/03/11 07:32:35;;;;;;;10.82;3.95;;;10.50;94.80;;;;;;4995488;28;20060;-85
2021/03/11 07:35:02;;;;;;;8.10;3.47;;;10.50;94.80;;;;;;5011729;28;20386;-85
2021/03/11 07:37:28;;;;;;;10.70;4.22;;;10.60;94.70;;;;;;5012906;28;20029;-87
2021/03/11 07:39:58;;;;;;;12.77;4.40;;;10.70;94.60;;;;;;5012787;28;20479;-86
2021/03/11 07:42:24;;;;;;;9.90;4.40;;;10.70;94.90;;;;;;5012316;28;20025;-86
2021/03/11 07:44:51;;;;;;;9.82;4.43;;;10.70;94.60;;;;;;5012472;28;20053;-88
2021/03/11 07:47:18;;;;;;;9.68;4.35;;;10.70;94.60;;;;;;5011402;28;20489;-86
2021/03/11 07:49:44;;;;;;;15.57;5.72;;;10.70;94.90;;;;;;5024295;28;20056;-86
2021/03/11 07:52:11;;;;;;;12.75;4.60;;;10.70;94.90;;;;;;5025787;28;20029;-87
2021/03/11 07:54:37;;;;;;;11.02;4.20;;;10.80;95.00;;;;;;5025720;28;20098;-86
2021/03/11 07:57:03;;;;;;;7.97;4.03;;;10.80;95.00;;;;;;5010068;28;20157;-85
2021/03/11 07:59:29;;;;;;;8.10;4.03;;;10.80;94.90;;;;;;5028949;28;20521;-84
2021/03/11 08:02:00;;;;;;;9.65;3.70;;;10.80;95.10;;;;;;5031086;28;20021;-85
2021/03/11 08:04:31;;;;;;;6.30;2.95;;;10.90;94.90;;;;;;5029396;28;20056;-86
2021/03/11 08:07:22;;;;;;;8.73;3.83;;;10.90;94.90;;;;;;5026756;28;21227;-86
2021/03/11 08:09:50;;;;;;;7.28;2.65;;;11.00;94.40;;;;;;5025870;28;20071;-85
2021/03/11 08:12:37;;;;;;;9.02;2.95;;;11.00;94.40;;;;;;4996007;28;20024;-87
2021/03/11 08:15:16;;;;;;;10.10;3.55;;;11.00;93.20;;;;;;5008693;28;20026;-87
2021/03/11 08:17:47;;;;;;;12.85;2.97;;;11.10;92.80;;;;;;5043568;28;20128;-87
2021/03/11 08:20:19;;;;;;;12.40;3.08;;;11.10;91.50;;;;;;5042243;28;20025;-87
2021/03/11 08:23:00;;;;;;;10.20;3.80;;;11.20;91.60;;;;;;5023303;28;20362;-87
2021/03/11 08:25:36;;;;;;;13.20;2.72;;;11.20;91.40;;;;;;5034277;28;20086;-88
2021/03/11 08:28:23;;;;;;;9.27;2.45;;;11.30;91.30;;;;;;5036176;28;20478;-86
2021/03/11 08:30:51;;;;;;;12.48;3.08;;;11.40;91.30;;;;;;5025505;28;20032;-88
2021/03/11 08:33:20;;;;;;;14.32;3.20;;;11.50;90.40;;;;;;5032671;28;20573;-88
2021/03/11 08:35:50;;;;;;;14.52;3.33;;;11.50;89.30;;;;;;5014920;28;20470;-87
2021/03/11 08:38:22;;;;;;;13.90;2.85;;;11.60;88.90;;;;;;5043491;28;20025;-87
2021/03/11 08:40:59;;;;;;;21.38;3.78;;;11.60;87.20;;;;;;5035020;28;20381;-87
2021/03/11 08:43:37;;;;;;;10.48;3.00;;;11.70;85.60;;;;;;5052614;28;20028;-92
2021/03/11 08:46:06;;;;;;;13.02;2.47;;;11.70;85.90;;;;;;5036534;28;20016;-87
2021/03/11 08:49:07;;;;;;;15.70;2.90;;;11.80;85.80;;;;;;5034732;28;20029;-89
2021/03/11 08:51:33;;;;;;;16.67;4.78;;;11.80;83.10;;;;;;4961820;28;20062;-92
2021/03/11 08:54:09;;;;;;;14.88;2.70;;;11.90;82.70;;;;;;5015730;28;20037;-89
2021/03/11 08:56:38;;;;;;;16.20;3.15;;;11.90;81.70;;;;;;5031396;28;20021;-91
2021/03/11 08:59:14;;;;;;;12.35;2.97;;;11.90;79.40;;;;;;5034721;28;20025;-91
2021/03/11 09:01:50;;;;;;;16.10;3.00;;;12.00;80.00;;;;;;5042968;28;20025;-90
2021/03/11 09:04:22;;;;;;;20.02;3.30;;;12.00;80.40;;;;;;5026765;28;20444;-89
2021/03/11 09:06:48;;;;;;;17.77;3.33;;;12.00;80.90;;;;;;5037142;28;20028;-89
2021/03/11 09:09:14;;;;;;;14.18;3.60;;;12.00;80.30;;;;;;5060958;28;20029;-89
2021/03/11 09:11:53;;;;;;;22.67;4.25;;;12.10;79.80;;;;;;4999403;28;20037;-91
2021/03/11 09:14:21;;;;;;;21.48;5.03;;;12.10;80.30;;;;;;5027671;28;20033;-90
2021/03/11 09:16:47;;;;;;;19.20;4.07;;;12.20;79.00;;;;;;5029532;28;20416;-89
2021/03/11 09:19:14;;;;;;;32.45;4.90;;;12.30;79.30;;;;;;5029309;28;20365;-86
2021/03/11 09:21:39;;;;;;;21.25;3.75;;;12.30;77.80;;;;;;5029377;28;20470;-89
2021/03/11 09:24:14;;;;;;;27.10;4.50;;;12.30;77.50;;;;;;5028150;28;20120;-89
2021/03/11 09:26:40;;;;;;;19.92;4.25;;;12.40;77.70;;;;;;5027459;28;20021;-80
2021/03/11 09:29:06;;;;;;;19.20;4.10;;;12.50;77.40;;;;;;5042207;28;20029;-90
2021/03/11 09:31:32;;;;;;;26.83;4.70;;;12.50;76.30;;;;;;5018169;28;20120;-91
2021/03/11 09:34:02;;;;;;;30.08;6.28;;;12.60;76.00;;;;;;5015689;28;20048;-90
2021/03/11 09:36:28;;;;;;;21.13;4.00;;;12.50;74.10;;;;;;5026702;28;20024;-90
2021/03/11 09:39:04;;;;;;;25.40;5.72;;;12.50;73.40;;;;;;5032266;28;20380;-90
2021/03/11 09:41:31;;;;;;;19.42;4.85;;;12.50;72.70;;;;;;5021699;28;20456;-91
2021/03/11 09:44:03;;;;;;;24.80;4.55;;;12.50;73.70;;;;;;5019192;28;20039;-90
2021/03/11 09:46:29;;;;;;;23.67;4.63;;;12.60;73.40;;;;;;5041837;28;20013;-92
2021/03/11 09:48:56;;;;;;;20.80;5.20;;;12.60;72.70;;;;;;5038489;28;20031;-91
2021/03/11 09:51:30;;;;;;;21.80;3.85;;;12.60;73.60;;;;;;5041739;28;20016;-91
2021/03/11 09:54:04;;;;;;;29.13;5.72;;;12.60;73.50;;;;;;5021622;28;20029;-91
2021/03/11 09:56:41;;;;;;;21.48;4.53;;;12.60;73.20;;;;;;5034362;28;20559;-92
2021/03/11 09:59:09;;;;;;;22.55;4.50;;;12.60;72.00;;;;;;5018753;28;20029;-85
2021/03/11 10:01:37;;;;;;;29.30;4.63;;;12.60;71.90;;;;;;5025048;28;20017;-84
2021/03/11 10:04:21;;;;;;;22.35;4.38;;;12.60;72.90;;;;;;5032754;28;20022;-87
2021/03/11 10:07:03;;;;;;;24.38;4.57;;;12.60;72.70;;;;;;5047279;28;20014;-87
2021/03/11 10:09:40;;;;;;;25.58;6.07;;;12.60;71.60;;;;;;5048517;28;20124;-87
2021/03/11 10:12:07;;;;;;;31.60;6.18;;;12.60;72.30;;;;;;5041267;28;20421;-86
2021/03/11 10:14:32;;;;;;;25.17;4.32;;;12.60;72.50;;;;;;5051680;28;20024;-86
2021/03/11 10:17:02;;;;;;;23.42;4.53;;;12.60;72.40;;;;;;5030076;28;20038;-86
2021/03/11 10:19:32;;;;;;;22.60;4.25;;;12.50;72.20;;;;;;5051816;28;20040;-87
2021/03/11 10:22:03;;;;;;;24.50;4.53;;;12.60;72.20;;;;;;5048661;28;20033;-87
2021/03/11 10:24:52;;;;;;;28.08;5.40;;;12.60;72.30;;;;;;5046581;28;20029;-87
2021/03/11 10:27:34;;;;;;;25.63;5.22;;;12.60;71.80;;;;;;5046604;28;20028;-87
2021/03/11 10:30:29;;;;;;;22.73;4.85;;;12.50;72.10;;;;;;5029195;28;20064;-88
2021/03/11 10:32:57;;;;;;;23.38;4.15;;;12.60;72.60;;;;;;5034409;28;20029;-88
2021/03/11 10:35:34;;;;;;;22.33;4.40;;;12.50;72.40;;;;;;5022230;28;20014;-88
2021/03/11 10:38:15;;;;;;;28.98;4.80;;;12.60;72.40;;;;;;5034648;28;20029;-88
2021/03/11 10:40:41;;;;;;;23.45;4.55;;;12.60;72.60;;;;;;5017239;28;20018;-87
2021/03/11 10:43:19;;;;;;;23.10;4.90;;;12.60;72.80;;;;;;5017630;28;20416;-87
2021/03/11 10:45:45;;;;;;;25.35;4.90;;;12.60;71.90;;;;;;5050867;28;20021;-88
2021/03/11 10:48:11;;;;;;;24.33;4.95;;;12.50;72.70;;;;;;5040541;28;20045;-87
2021/03/11 10:50:50;;;;;;;22.25;4.57;;;12.50;72.30;;;;;;5035785;28;20052;-89
2021/03/11 10:53:18;;;;;;;20.70;4.93;;;12.50;72.60;;;;;;5036143;28;20028;-90
2021/03/11 10:55:46;;;;;;;30.77;6.50;;;12.50;72.70;;;;;;5003334;28;20434;-88
2021/03/11 10:58:26;;;;;;;29.17;5.28;;;12.60;73.20;;;;;;5045297;28;20017;-87
2021/03/11 11:01:22;;;;;;;22.95;4.65;;;12.60;73.50;;;;;;5049445;28;20009;-87
2021/03/11 11:03:48;;;;;;;28.63;4.57;;;12.60;72.80;;;;;;5021542;28;20036;-88
2021/03/11 11:06:14;;;;;;;30.88;6.03;;;12.60;74.80;;;;;;5052896;28;20128;-89
2021/03/11 11:08:44;;;;;;;27.60;5.03;;;12.50;79.50;;;;;;5040250;28;20113;-88
2021/03/11 11:11:11;;;;;;;27.15;5.43;;;12.30;82.40;;;;;;5016349;28;20477;-90
2021/03/11 11:13:37;;;;;;;25.02;5.18;;;12.30;82.90;;;;;;5034816;28;20022;-87
2021/03/11 11:16:03;;;;;;;19.50;4.03;;;12.10;81.20;;;;;;5033693;28;20028;-88
2021/03/11 11:18:29;;;;;;;25.95;4.70;;;12.10;79.50;;;;;;5017224;28;20036;-93
2021/03/11 11:20:55;;;;;;;20.33;4.10;;;12.00;78.40;;;;;;5000802;28;20112;-92
2021/03/11 11:23:20;;;;;;;25.85;4.55;;;12.10;78.20;;;;;;5001411;28;20120;-90
2021/03/11 11:25:46;;;;;;;20.63;4.97;;;12.10;76.70;;;;;;5045209;28;20430;-92
2021/03/11 11:28:12;;;;;;;22.92;4.43;;;12.10;76.80;;;;;;5016840;28;20022;-91
2021/03/11 11:30:38;;;;;;;19.38;3.92;;;12.20;77.50;;;;;;5027684;28;20351;-91
2021/03/11 11:33:04;;;;;;;21.17;3.88;;;12.30;77.00;;;;;;5045969;28;20013;-91
2021/03/11 11:35:30;;;;;;;17.90;3.88;;;12.30;76.10;;;;;;5052099;28;20031;-91
2021/03/11 11:37:55;;;;;;;19.58;3.35;;;12.40;74.70;;;;;;5015703;28;20024;-93
2021/03/11 11:40:21;;;;;;;17.67;3.95;;;12.40;74.40;;;;;;5018455;28;20029;-91
2021/03/11 11:42:47;;;;;;;21.67;4.75;;;12.40;73.50;;;;;;5051657;28;20021;-91
2021/03/11 11:45:14;;;;;;;15.73;3.78;;;12.40;72.50;;;;;;5029024;28;20070;-90
2021/03/11 11:47:40;;;;;;;22.02;3.97;;;12.40;72.60;;;;;;5047162;28;20055;-91
2021/03/11 11:50:10;;;;;;;21.00;3.78;;;12.40;73.30;;;;;;5031319;28;20452;-91
2021/03/11 11:52:36;;;;;;;21.02;3.25;;;12.50;72.80;;;;;;5051958;28;20029;-90
2021/03/11 11:55:04;;;;;;;17.80;3.65;;;12.40;71.90;;;;;;5051025;28;20024;-90
2021/03/11 11:57:30;;;;;;;16.60;3.55;;;12.50;73.50;;;;;;5047611;28;20037;-88
2021/03/11 11:59:56;;;;;;;24.25;4.00;;;12.50;72.60;;;;;;5031622;28;20030;-88
2021/03/11 12:02:22;;;;;;;24.83;3.30;;;12.50;71.90;;;;;;5050252;28;20104;-86
2021/03/11 12:04:48;;;;;;;19.35;3.28;;;12.50;72.10;;;;;;5024092;28;20460;-87
2021/03/11 12:07:14;;;;;;;13.88;2.70;;;12.60;73.00;;;;;;5032139;28;20056;-86
2021/03/11 12:09:39;;;;;;;18.95;3.35;;;12.60;72.80;;;;;;5015105;28;20409;-90
2021/03/11 12:12:06;;;;;;;21.42;3.55;;;12.70;71.60;;;;;;5040836;28;20028;-85
2021/03/11 12:14:32;;;;;;;23.02;4.78;;;12.60;71.40;;;;;;4997761;28;20037;-86
2021/03/11 12:16:58;;;;;;;19.58;3.92;;;12.60;71.50;;;;;;5031383;28;20096;-89
2021/03/11 12:19:24;;;;;;;16.05;3.50;;;12.70;72.50;;;;;;5013102;28;20362;-86
2021/03/11 12:21:50;;;;;;;13.77;3.35;;;12.70;71.80;;;;;;5030893;28;20025;-85
2021/03/11 12:24:15;;;;;;;14.73;3.10;;;12.70;72.00;;;;;;5032078;28;20059;-85
2021/03/11 12:26:41;;;;;;;22.27;3.33;;;12.80;71.20;;;;;;5014565;28;20339;-86
2021/03/11 12:29:07;;;;;;;20.25;4.20;;;12.80;70.10;;;;;;5031783;28;20021;-85
2021/03/11 12:31:32;;;;;;;23.52;3.67;;;12.70;69.70;;;;;;5014217;28;20026;-85
2021/03/11 12:33:58;;;;;;;15.23;3.95;;;12.70;69.60;;;;;;5031815;28;20030;-86
2021/03/11 12:36:25;;;;;;;16.25;3.15;;;12.80;71.70;;;;;;5014744;28;20525;-88
2021/03/11 12:38:52;;;;;;;21.05;3.55;;;12.80;71.60;;;;;;5032215;28;20057;-87
2021/03/11 12:41:19;;;;;;;14.43;3.72;;;12.80;71.40;;;;;;5031697;28;20366;-85
2021/03/11 12:43:46;;;;;;;22.77;3.95;;;12.80;70.20;;;;;;4997588;28;20130;-85
2021/03/11 12:46:12;;;;;;;18.75;4.32;;;12.90;70.80;;;;;;5032609;28;20474;-87